sensor_id;sensor_type;location;lat;lon;timestamp;temperature;humidity
30037;DHT22;36325;51.512;-0.382;2024-02-23T00:02:01;4.30;99.90
30037;DHT22;36325;51.512;-0.382;2024-02-23T00:04:28;6.80;99.90
30037;DHT22;36325;51.512;-0.382;2024-02-23T00:06:55;4.30;99.90
30037;DHT22;36325;51.512;-0.382;2024-02-23T00:09:22;4.30;99.90
30037;DHT22;36325;51.512;-0.382;2024-02-23T00:11:51;4.30;99.90
30037;DHT22;36325;51.512;-0.382;2024-02-23T00:14:18;4.30;99.90
30037;DHT22;36325;51.512;-0.382;2024-02-23T00:16:45;4.30;99.90
30037;DHT22;36325;51.512;-0.382;2024-02-23T00:19:13;4.30;99.90
30037;DHT22;36325;51.512;-0.382;2024-02-23T00:21:40;4.30;99.90
30037;DHT22;36325;51.512;-0.382;2024-02-23T00:24:09;4.30;99.90
30037;DHT22;36325;51.512;-0.382;2024-02-23T00:26:36;4.30;99.90
30037;DHT22;36325;51.512;-0.382;2024-02-23T00:29:03;4.30;99.90
30037;DHT22;36325;51.512;-0.382;2024-02-23T00:31:30;4.30;99.90
30037;DHT22;36325;51.512;-0.382;2024-02-23T00:33:57;4.30;99.90
30037;DHT22;36325;51.512;-0.382;2024-02-23T00:36:25;4.30;99.90
30037;DHT22;36325;51.512;-0.382;2024-02-23T00:38:52;4.30;99.90
30037;DHT22;36325;51.512;-0.382;2024-02-23T00:41:19;4.30;99.90
30037;DHT22;36325;51.512;-0.382;2024-02-23T00:43:46;4.30;99.90
30037;DHT22;36325;51.512;-0.382;2024-02-23T00:46:14;4.30;99.90
30037;DHT22;36325;51.512;-0.382;2024-02-23T00:48:43;4.30;99.90
30037;DHT22;36325;51.512;-0.382;2024-02-23T00:51:10;4.40;99.90
30037;DHT22;36325;51.512;-0.382;2024-02-23T00:53:37;4.40;99.90
30037;DHT22;36325;51.512;-0.382;2024-02-23T00:56:04;4.40;99.90
30037;DHT22;36325;51.512;-0.382;2024-02-23T00:58:31;4.50;99.90
30037;DHT22;36325;51.512;-0.382;2024-02-23T01:00:59;4.50;99.90
30037;DHT22;36325;51.512;-0.382;2024-02-23T01:03:26;4.50;99.90
30037;DHT22;36325;51.512;-0.382;2024-02-23T01:05:53;4.50;99.90
30037;DHT22;36325;51.512;-0.382;2024-02-23T01:08:20;2.90;99.90
30037;DHT22;36325;51.512;-0.382;2024-02-23T01:10:47;4.50;99.90
30037;DHT22;36325;51.512;-0.382;2024-02-23T01:13:15;4.50;99.90
30037;DHT22;36325;51.512;-0.382;2024-02-23T01:15:42;4.50;99.90
30037;DHT22;36325;51.512;-0.382;2024-02-23T01:18:09;4.50;99.90
30037;DHT22;36325;51.512;-0.382;2024-02-23T01:20:36;4.50;99.90
30037;DHT22;36325;51.512;-0.382;2024-02-23T01:23:03;4.50;99.90
30037;DHT22;36325;51.512;-0.382;2024-02-23T01:25:30;4.50;99.90
30037;DHT22;36325;51.512;-0.382;2024-02-23T01:27:57;4.50;99.90
30037;DHT22;36325;51.512;-0.382;2024-02-23T01:30:24;4.50;99.90
30037;DHT22;36325;51.512;-0.382;2024-02-23T01:32:51;4.40;99.90
30037;DHT22;36325;51.512;-0.382;2024-02-23T01:35:19;4.40;99.90
30037;DHT22;36325;51.512;-0.382;2024-02-23T01:37:46;4.50;99.90
30037;DHT22;36325;51.512;-0.382;2024-02-23T01:40:13;4.50;99.90
30037;DHT22;36325;51.512;-0.382;2024-02-23T01:42:40;4.50;99.90
30037;DHT22;36325;51.512;-0.382;2024-02-23T01:45:07;4.50;99.90
30037;DHT22;36325;51.512;-0.382;2024-02-23T01:47:35;4.50;99.90
30037;DHT22;36325;51.512;-0.382;2024-02-23T01:50:02;4.50;99.90
30037;DHT22;36325;51.512;-0.382;2024-02-23T01:52:30;4.50;99.90
30037;DHT22;36325;51.512;-0.382;2024-02-23T01:54:57;4.60;99.90
30037;DHT22;36325;51.512;-0.382;2024-02-23T01:57:24;4.60;99.90
30037;DHT22;36325;51.512;-0.382;2024-02-23T01:59:59;4.60;99.90
30037;DHT22;36325;51.512;-0.382;2024-02-23T02:02:30;4.60;99.90
30037;DHT22;36325;51.512;-0.382;2024-02-23T02:04:57;4.60;99.90
30037;DHT22;36325;51.512;-0.382;2024-02-23T02:07:24;4.60;99.90
30037;DHT22;36325;51.512;-0.382;2024-02-23T02:09:52;4.60;99.90
30037;DHT22;36325;51.512;-0.382;2024-02-23T02:12:28;4.60;99.90
30037;DHT22;36325;51.512;-0.382;2024-02-23T02:14:56;4.60;99.90
30037;DHT22;36325;51.512;-0.382;2024-02-23T02:17:23;4.60;99.90
30037;DHT22;36325;51.512;-0.382;2024-02-23T02:19:51;4.60;99.90
30037;DHT22;36325;51.512;-0.382;2024-02-23T02:22:19;4.60;99.90
30037;DHT22;36325;51.512;-0.382;2024-02-23T02:24:47;4.60;99.90
30037;DHT22;36325;51.512;-0.382;2024-02-23T02:27:20;4.60;99.90
30037;DHT22;36325;51.512;-0.382;2024-02-23T02:29:49;4.60;99.90
30037;DHT22;36325;51.512;-0.382;2024-02-23T02:32:16;4.60;99.90
30037;DHT22;36325;51.512;-0.382;2024-02-23T02:34:43;4.70;99.90
30037;DHT22;36325;51.512;-0.382;2024-02-23T02:37:10;4.80;99.90
30037;DHT22;36325;51.512;-0.382;2024-02-23T02:39:38;4.80;99.90
30037;DHT22;36325;51.512;-0.382;2024-02-23T02:42:05;4.80;99.90
30037;DHT22;36325;51.512;-0.382;2024-02-23T02:44:32;4.90;99.90
30037;DHT22;36325;51.512;-0.382;2024-02-23T02:47:00;5.00;99.90
30037;DHT22;36325;51.512;-0.382;2024-02-23T02:49:28;5.00;99.90
30037;DHT22;36325;51.512;-0.382;2024-02-23T02:51:55;5.00;99.90
30037;DHT22;36325;51.512;-0.382;2024-02-23T02:54:22;5.10;99.90
30037;DHT22;36325;51.512;-0.382;2024-02-23T02:56:49;5.20;99.90
30037;DHT22;36325;51.512;-0.382;2024-02-23T02:59:17;5.20;99.90
30037;DHT22;36325;51.512;-0.382;2024-02-23T03:01:45;5.20;99.90
30037;DHT22;36325;51.512;-0.382;2024-02-23T03:04:13;5.20;99.90
30037;DHT22;36325;51.512;-0.382;2024-02-23T03:06:41;5.30;99.90
30037;DHT22;36325;51.512;-0.382;2024-02-23T03:09:08;5.30;99.90
30037;DHT22;36325;51.512;-0.382;2024-02-23T03:11:35;5.30;99.90
30037;DHT22;36325;51.512;-0.382;2024-02-23T03:14:02;5.30;99.90
30037;DHT22;36325;51.512;-0.382;2024-02-23T03:16:30;5.40;99.90
30037;DHT22;36325;51.512;-0.382;2024-02-23T03:18:57;5.40;99.90
30037;DHT22;36325;51.512;-0.382;2024-02-23T03:21:25;5.30;99.90
30037;DHT22;36325;51.512;-0.382;2024-02-23T03:23:52;5.30;99.90
30037;DHT22;36325;51.512;-0.382;2024-02-23T03:26:19;5.20;99.90
30037;DHT22;36325;51.512;-0.382;2024-02-23T03:28:46;5.30;99.90
30037;DHT22;36325;51.512;-0.382;2024-02-23T03:31:15;5.20;99.90
30037;DHT22;36325;51.512;-0.382;2024-02-23T03:33:42;5.20;99.90
30037;DHT22;36325;51.512;-0.382;2024-02-23T03:36:10;5.20;99.90
30037;DHT22;36325;51.512;-0.382;2024-02-23T03:38:37;5.20;99.90
30037;DHT22;36325;51.512;-0.382;2024-02-23T03:41:04;5.20;99.90
30037;DHT22;36325;51.512;-0.382;2024-02-23T03:43:31;5.20;99.90
30037;DHT22;36325;51.512;-0.382;2024-02-23T03:46:00;5.20;99.90
30037;DHT22;36325;51.512;-0.382;2024-02-23T03:48:27;5.20;99.90
30037;DHT22;36325;51.512;-0.382;2024-02-23T03:50:54;5.20;99.90
30037;DHT22;36325;51.512;-0.382;2024-02-23T03:53:21;5.20;99.90
30037;DHT22;36325;51.512;-0.382;2024-02-23T03:55:49;5.30;99.90
30037;DHT22;36325;51.512;-0.382;2024-02-23T03:58:16;5.30;99.90
30037;DHT22;36325;51.512;-0.382;2024-02-23T04:00:43;5.30;99.90
30037;DHT22;36325;51.512;-0.382;2024-02-23T04:03:10;5.40;99.90
30037;DHT22;36325;51.512;-0.382;2024-02-23T04:05:37;5.40;99.90
30037;DHT22;36325;51.512;-0.382;2024-02-23T04:08:05;5.50;99.90
30037;DHT22;36325;51.512;-0.382;2024-02-23T04:10:33;5.50;99.90
30037;DHT22;36325;51.512;-0.382;2024-02-23T04:13:00;5.60;99.90
30037;DHT22;36325;51.512;-0.382;2024-02-23T04:15:27;5.70;99.90
30037;DHT22;36325;51.512;-0.382;2024-02-23T04:17:55;5.70;99.90
30037;DHT22;36325;51.512;-0.382;2024-02-23T04:20:22;5.70;99.90
30037;DHT22;36325;51.512;-0.382;2024-02-23T04:22:49;5.70;99.90
30037;DHT22;36325;51.512;-0.382;2024-02-23T04:25:16;5.70;99.90
30037;DHT22;36325;51.512;-0.382;2024-02-23T04:27:43;5.70;99.90
30037;DHT22;36325;51.512;-0.382;2024-02-23T04:30:11;5.70;99.90
30037;DHT22;36325;51.512;-0.382;2024-02-23T04:32:38;4.60;99.90
30037;DHT22;36325;51.512;-0.382;2024-02-23T04:35:05;5.80;99.90
30037;DHT22;36325;51.512;-0.382;2024-02-23T04:37:32;5.80;99.90
30037;DHT22;36325;51.512;-0.382;2024-02-23T04:40:02;7.40;99.90
30037;DHT22;36325;51.512;-0.382;2024-02-23T04:42:31;5.80;99.90
30037;DHT22;36325;51.512;-0.382;2024-02-23T04:44:58;5.80;99.90
30037;DHT22;36325;51.512;-0.382;2024-02-23T04:47:25;5.70;99.90
30037;DHT22;36325;51.512;-0.382;2024-02-23T04:49:52;5.80;99.90
30037;DHT22;36325;51.512;-0.382;2024-02-23T04:52:20;5.70;99.90
30037;DHT22;36325;51.512;-0.382;2024-02-23T04:54:48;5.70;99.90
30037;DHT22;36325;51.512;-0.382;2024-02-23T04:57:15;5.60;99.90
30037;DHT22;36325;51.512;-0.382;2024-02-23T04:59:42;5.70;99.90
30037;DHT22;36325;51.512;-0.382;2024-02-23T05:02:09;5.70;99.90
30037;DHT22;36325;51.512;-0.382;2024-02-23T05:04:36;5.70;99.90
30037;DHT22;36325;51.512;-0.382;2024-02-23T05:07:03;5.80;99.90
30037;DHT22;36325;51.512;-0.382;2024-02-23T05:09:31;5.80;99.90
30037;DHT22;36325;51.512;-0.382;2024-02-23T05:11:59;5.70;99.90
30037;DHT22;36325;51.512;-0.382;2024-02-23T05:14:26;5.70;99.90
30037;DHT22;36325;51.512;-0.382;2024-02-23T05:16:53;6.10;99.90
30037;DHT22;36325;51.512;-0.382;2024-02-23T05:19:20;5.70;99.90
30037;DHT22;36325;51.512;-0.382;2024-02-23T05:21:48;5.70;99.90
30037;DHT22;36325;51.512;-0.382;2024-02-23T05:24:15;5.70;99.90
30037;DHT22;36325;51.512;-0.382;2024-02-23T05:26:42;5.70;99.90
30037;DHT22;36325;51.512;-0.382;2024-02-23T05:29:11;5.70;99.90
30037;DHT22;36325;51.512;-0.382;2024-02-23T05:31:48;5.60;99.90
30037;DHT22;36325;51.512;-0.382;2024-02-23T05:34:15;5.60;99.90
30037;DHT22;36325;51.512;-0.382;2024-02-23T05:36:42;5.50;99.90
30037;DHT22;36325;51.512;-0.382;2024-02-23T05:39:10;5.50;99.90
30037;DHT22;36325;51.512;-0.382;2024-02-23T05:41:39;5.50;99.90
30037;DHT22;36325;51.512;-0.382;2024-02-23T05:44:06;5.40;99.90
30037;DHT22;36325;51.512;-0.382;2024-02-23T05:46:36;5.40;99.90
30037;DHT22;36325;51.512;-0.382;2024-02-23T05:49:04;5.40;99.90
30037;DHT22;36325;51.512;-0.382;2024-02-23T05:51:31;5.40;99.90
30037;DHT22;36325;51.512;-0.382;2024-02-23T05:53:58;5.30;99.90
30037;DHT22;36325;51.512;-0.382;2024-02-23T05:56:25;5.30;99.90
30037;DHT22;36325;51.512;-0.382;2024-02-23T05:58:53;5.20;99.90
30037;DHT22;36325;51.512;-0.382;2024-02-23T06:01:20;5.20;99.90
30037;DHT22;36325;51.512;-0.382;2024-02-23T06:03:47;5.30;99.90
30037;DHT22;36325;51.512;-0.382;2024-02-23T06:06:14;5.20;99.90
30037;DHT22;36325;51.512;-0.382;2024-02-23T06:08:41;5.30;99.90
30037;DHT22;36325;51.512;-0.382;2024-02-23T06:11:09;5.30;99.90
30037;DHT22;36325;51.512;-0.382;2024-02-23T06:13:36;5.30;99.90
30037;DHT22;36325;51.512;-0.382;2024-02-23T06:16:04;5.30;99.90
30037;DHT22;36325;51.512;-0.382;2024-02-23T06:18:31;5.20;99.90
30037;DHT22;36325;51.512;-0.382;2024-02-23T06:20:59;5.20;99.90
30037;DHT22;36325;51.512;-0.382;2024-02-23T06:23:26;5.10;99.90
30037;DHT22;36325;51.512;-0.382;2024-02-23T06:25:53;5.10;99.90
30037;DHT22;36325;51.512;-0.382;2024-02-23T06:28:20;5.10;99.90
30037;DHT22;36325;51.512;-0.382;2024-02-23T06:30:48;5.00;99.90
30037;DHT22;36325;51.512;-0.382;2024-02-23T06:33:15;5.10;99.90
30037;DHT22;36325;51.512;-0.382;2024-02-23T06:35:42;5.00;99.90
30037;DHT22;36325;51.512;-0.382;2024-02-23T06:38:09;5.10;99.90
30037;DHT22;36325;51.512;-0.382;2024-02-23T06:40:36;5.00;99.90
30037;DHT22;36325;51.512;-0.382;2024-02-23T06:43:11;5.00;99.90
30037;DHT22;36325;51.512;-0.382;2024-02-23T06:45:39;5.00;99.90
30037;DHT22;36325;51.512;-0.382;2024-02-23T06:48:06;5.00;99.90
30037;DHT22;36325;51.512;-0.382;2024-02-23T06:50:34;4.90;99.90
30037;DHT22;36325;51.512;-0.382;2024-02-23T06:53:02;4.90;99.90
30037;DHT22;36325;51.512;-0.382;2024-02-23T06:55:29;4.80;99.90
30037;DHT22;36325;51.512;-0.382;2024-02-23T06:57:56;4.80;99.90
30037;DHT22;36325;51.512;-0.382;2024-02-23T07:00:23;4.80;99.90
30037;DHT22;36325;51.512;-0.382;2024-02-23T07:02:50;4.80;99.90
30037;DHT22;36325;51.512;-0.382;2024-02-23T07:05:18;4.80;99.90
30037;DHT22;36325;51.512;-0.382;2024-02-23T07:07:45;4.80;99.90
30037;DHT22;36325;51.512;-0.382;2024-02-23T07:10:13;4.80;99.90
30037;DHT22;36325;51.512;-0.382;2024-02-23T07:12:40;4.80;99.90
30037;DHT22;36325;51.512;-0.382;2024-02-23T07:15:07;4.80;99.90
30037;DHT22;36325;51.512;-0.382;2024-02-23T07:17:34;4.70;99.90
30037;DHT22;36325;51.512;-0.382;2024-02-23T07:20:01;4.80;99.90
30037;DHT22;36325;51.512;-0.382;2024-02-23T07:22:33;4.80;99.90
30037;DHT22;36325;51.512;-0.382;2024-02-23T07:25:00;4.80;99.90
30037;DHT22;36325;51.512;-0.382;2024-02-23T07:27:30;4.80;99.90
30037;DHT22;36325;51.512;-0.382;2024-02-23T07:29:58;4.80;99.90
30037;DHT22;36325;51.512;-0.382;2024-02-23T07:32:25;4.90;99.90
30037;DHT22;36325;51.512;-0.382;2024-02-23T07:34:52;5.00;99.90
30037;DHT22;36325;51.512;-0.382;2024-02-23T07:37:19;5.10;99.90
30037;DHT22;36325;51.512;-0.382;2024-02-23T07:39:46;5.10;99.90
30037;DHT22;36325;51.512;-0.382;2024-02-23T07:42:13;5.20;99.90
30037;DHT22;36325;51.512;-0.382;2024-02-23T07:44:45;5.40;99.90
30037;DHT22;36325;51.512;-0.382;2024-02-23T07:47:12;5.40;99.90
30037;DHT22;36325;51.512;-0.382;2024-02-23T07:49:39;5.40;99.90
30037;DHT22;36325;51.512;-0.382;2024-02-23T07:52:09;5.60;99.90
30037;DHT22;36325;51.512;-0.382;2024-02-23T07:54:37;5.60;99.90
30037;DHT22;36325;51.512;-0.382;2024-02-23T07:57:04;5.70;99.90
30037;DHT22;36325;51.512;-0.382;2024-02-23T07:59:31;5.80;99.90
30037;DHT22;36325;51.512;-0.382;2024-02-23T08:02:00;5.90;99.90
30037;DHT22;36325;51.512;-0.382;2024-02-23T08:04:27;6.10;99.90
30037;DHT22;36325;51.512;-0.382;2024-02-23T08:06:54;6.20;99.90
30037;DHT22;36325;51.512;-0.382;2024-02-23T08:09:21;6.30;99.90
30037;DHT22;36325;51.512;-0.382;2024-02-23T08:11:49;6.40;99.90
30037;DHT22;36325;51.512;-0.382;2024-02-23T08:14:18;6.50;99.90
30037;DHT22;36325;51.512;-0.382;2024-02-23T08:16:45;6.50;99.90
30037;DHT22;36325;51.512;-0.382;2024-02-23T08:19:12;6.60;99.90
30037;DHT22;36325;51.512;-0.382;2024-02-23T08:21:39;6.70;99.90
30037;DHT22;36325;51.512;-0.382;2024-02-23T08:24:07;6.70;99.90
30037;DHT22;36325;51.512;-0.382;2024-02-23T08:26:34;6.80;99.90
30037;DHT22;36325;51.512;-0.382;2024-02-23T08:29:02;6.90;99.90
30037;DHT22;36325;51.512;-0.382;2024-02-23T08:31:30;6.90;99.90
30037;DHT22;36325;51.512;-0.382;2024-02-23T08:33:57;6.90;99.90
30037;DHT22;36325;51.512;-0.382;2024-02-23T08:36:24;7.00;99.90
30037;DHT22;36325;51.512;-0.382;2024-02-23T08:38:51;7.10;99.90
30037;DHT22;36325;51.512;-0.382;2024-02-23T08:41:18;7.50;99.90
30037;DHT22;36325;51.512;-0.382;2024-02-23T08:43:45;7.50;99.90
30037;DHT22;36325;51.512;-0.382;2024-02-23T08:46:12;7.60;99.90
30037;DHT22;36325;51.512;-0.382;2024-02-23T08:48:39;7.80;99.90
30037;DHT22;36325;51.512;-0.382;2024-02-23T08:51:07;8.00;99.90
30037;DHT22;36325;51.512;-0.382;2024-02-23T08:53:34;8.20;99.90
30037;DHT22;36325;51.512;-0.382;2024-02-23T08:56:01;8.30;99.90
30037;DHT22;36325;51.512;-0.382;2024-02-23T08:58:28;8.50;99.90
30037;DHT22;36325;51.512;-0.382;2024-02-23T09:00:56;8.60;99.90
30037;DHT22;36325;51.512;-0.382;2024-02-23T09:03:23;8.80;99.90
30037;DHT22;36325;51.512;-0.382;2024-02-23T09:05:50;8.90;99.90
30037;DHT22;36325;51.512;-0.382;2024-02-23T09:11:58;9.30;99.90
30037;DHT22;36325;51.512;-0.382;2024-02-23T09:14:26;9.20;99.90
30037;DHT22;36325;51.512;-0.382;2024-02-23T09:16:53;9.20;99.90
30037;DHT22;36325;51.512;-0.382;2024-02-23T09:19:20;9.20;99.90
30037;DHT22;36325;51.512;-0.382;2024-02-23T09:21:47;9.30;99.90
30037;DHT22;36325;51.512;-0.382;2024-02-23T09:24:14;9.50;99.90
30037;DHT22;36325;51.512;-0.382;2024-02-23T09:26:42;9.80;99.90
30037;DHT22;36325;51.512;-0.382;2024-02-23T09:29:09;10.10;99.90
30037;DHT22;36325;51.512;-0.382;2024-02-23T09:31:36;10.30;99.90
30037;DHT22;36325;51.512;-0.382;2024-02-23T09:34:03;10.60;99.90
30037;DHT22;36325;51.512;-0.382;2024-02-23T09:36:30;10.90;99.90
30037;DHT22;36325;51.512;-0.382;2024-02-23T09:38:57;11.10;99.90
30037;DHT22;36325;51.512;-0.382;2024-02-23T09:41:24;11.30;99.90
30037;DHT22;36325;51.512;-0.382;2024-02-23T09:43:52;11.10;99.90
30037;DHT22;36325;51.512;-0.382;2024-02-23T09:46:22;10.80;99.90
30037;DHT22;36325;51.512;-0.382;2024-02-23T09:48:49;10.70;99.90
30037;DHT22;36325;51.512;-0.382;2024-02-23T09:51:17;10.70;99.90
30037;DHT22;36325;51.512;-0.382;2024-02-23T09:53:44;10.70;99.90
30037;DHT22;36325;51.512;-0.382;2024-02-23T09:56:11;10.60;99.90
30037;DHT22;36325;51.512;-0.382;2024-02-23T09:58:39;10.60;99.90
30037;DHT22;36325;51.512;-0.382;2024-02-23T10:01:06;10.60;99.90
30037;DHT22;36325;51.512;-0.382;2024-02-23T10:03:33;10.60;99.90
30037;DHT22;36325;51.512;-0.382;2024-02-23T10:06:02;10.60;99.90
30037;DHT22;36325;51.512;-0.382;2024-02-23T10:08:29;10.70;99.90
30037;DHT22;36325;51.512;-0.382;2024-02-23T10:10:56;10.40;99.90
30037;DHT22;36325;51.512;-0.382;2024-02-23T10:13:24;10.20;99.90
30037;DHT22;36325;51.512;-0.382;2024-02-23T10:15:52;11.50;99.90
30037;DHT22;36325;51.512;-0.382;2024-02-23T10:18:25;10.50;99.90
30037;DHT22;36325;51.512;-0.382;2024-02-23T10:20:53;10.60;99.90
30037;DHT22;36325;51.512;-0.382;2024-02-23T10:23:20;10.80;99.90
30037;DHT22;36325;51.512;-0.382;2024-02-23T10:25:47;11.00;99.90
30037;DHT22;36325;51.512;-0.382;2024-02-23T10:28:14;10.30;99.90
30037;DHT22;36325;51.512;-0.382;2024-02-23T10:30:42;11.00;99.90
30037;DHT22;36325;51.512;-0.382;2024-02-23T10:33:09;11.10;99.90
30037;DHT22;36325;51.512;-0.382;2024-02-23T10:35:38;11.90;99.90
30037;DHT22;36325;51.512;-0.382;2024-02-23T10:38:08;8.20;99.90
30037;DHT22;36325;51.512;-0.382;2024-02-23T10:40:37;10.80;99.90
30037;DHT22;36325;51.512;-0.382;2024-02-23T10:43:11;10.70;99.90
30037;DHT22;36325;51.512;-0.382;2024-02-23T10:45:40;10.80;99.90
30037;DHT22;36325;51.512;-0.382;2024-02-23T10:48:08;10.80;99.90
30037;DHT22;36325;51.512;-0.382;2024-02-23T10:50:36;10.70;99.90
30037;DHT22;36325;51.512;-0.382;2024-02-23T10:53:04;10.50;99.90
30037;DHT22;36325;51.512;-0.382;2024-02-23T10:55:32;10.50;99.90
30037;DHT22;36325;51.512;-0.382;2024-02-23T10:57:59;10.50;99.90
30037;DHT22;36325;51.512;-0.382;2024-02-23T11:00:27;10.70;99.90
30037;DHT22;36325;51.512;-0.382;2024-02-23T11:02:54;10.90;99.90
30037;DHT22;36325;51.512;-0.382;2024-02-23T11:05:22;11.10;99.90
30037;DHT22;36325;51.512;-0.382;2024-02-23T11:07:49;11.30;99.90
30037;DHT22;36325;51.512;-0.382;2024-02-23T11:10:18;11.80;99.90
30037;DHT22;36325;51.512;-0.382;2024-02-23T11:12:59;11.80;99.90
30037;DHT22;36325;51.512;-0.382;2024-02-23T11:15:27;11.80;99.90
30037;DHT22;36325;51.512;-0.382;2024-02-23T11:17:55;11.80;99.90
30037;DHT22;36325;51.512;-0.382;2024-02-23T11:20:22;11.90;99.90
30037;DHT22;36325;51.512;-0.382;2024-02-23T11:22:54;12.10;99.90
30037;DHT22;36325;51.512;-0.382;2024-02-23T11:25:21;11.90;99.90
30037;DHT22;36325;51.512;-0.382;2024-02-23T11:27:53;11.80;99.90
30037;DHT22;36325;51.512;-0.382;2024-02-23T11:30:20;11.70;99.90
30037;DHT22;36325;51.512;-0.382;2024-02-23T11:32:48;11.60;99.90
30037;DHT22;36325;51.512;-0.382;2024-02-23T11:35:15;11.90;99.90
30037;DHT22;36325;51.512;-0.382;2024-02-23T11:37:52;11.80;99.90
30037;DHT22;36325;51.512;-0.382;2024-02-23T11:40:29;11.60;99.90
30037;DHT22;36325;51.512;-0.382;2024-02-23T11:42:57;11.40;99.90
30037;DHT22;36325;51.512;-0.382;2024-02-23T11:45:24;11.30;99.90
30037;DHT22;36325;51.512;-0.382;2024-02-23T11:47:52;11.10;99.90
30037;DHT22;36325;51.512;-0.382;2024-02-23T11:50:19;11.10;99.90
30037;DHT22;36325;51.512;-0.382;2024-02-23T11:52:48;11.00;99.90
30037;DHT22;36325;51.512;-0.382;2024-02-23T11:55:19;11.00;99.90
30037;DHT22;36325;51.512;-0.382;2024-02-23T11:57:49;11.10;99.90
30037;DHT22;36325;51.512;-0.382;2024-02-23T12:00:23;11.00;99.90
30037;DHT22;36325;51.512;-0.382;2024-02-23T12:02:50;10.90;99.90
30037;DHT22;36325;51.512;-0.382;2024-02-23T12:05:17;10.80;99.90
30037;DHT22;36325;51.512;-0.382;2024-02-23T12:07:44;11.20;99.90
30037;DHT22;36325;51.512;-0.382;2024-02-23T12:10:13;12.30;99.90
30037;DHT22;36325;51.512;-0.382;2024-02-23T12:12:40;13.20;99.90
30037;DHT22;36325;51.512;-0.382;2024-02-23T12:15:07;14.30;99.90
30037;DHT22;36325;51.512;-0.382;2024-02-23T12:17:45;15.10;99.90
30037;DHT22;36325;51.512;-0.382;2024-02-23T12:20:13;15.80;99.90
30037;DHT22;36325;51.512;-0.382;2024-02-23T12:22:40;15.30;99.90
30037;DHT22;36325;51.512;-0.382;2024-02-23T12:25:07;14.50;99.90
30037;DHT22;36325;51.512;-0.382;2024-02-23T12:27:35;13.90;99.90
30037;DHT22;36325;51.512;-0.382;2024-02-23T12:30:03;13.40;99.90
30037;DHT22;36325;51.512;-0.382;2024-02-23T12:32:30;12.30;99.90
30037;DHT22;36325;51.512;-0.382;2024-02-23T12:34:58;12.70;99.90
30037;DHT22;36325;51.512;-0.382;2024-02-23T12:37:25;12.80;99.90
30037;DHT22;36325;51.512;-0.382;2024-02-23T12:39:52;13.20;99.90
30037;DHT22;36325;51.512;-0.382;2024-02-23T12:42:19;13.50;99.90
30037;DHT22;36325;51.512;-0.382;2024-02-23T12:44:46;14.00;99.90
30037;DHT22;36325;51.512;-0.382;2024-02-23T12:47:14;14.80;99.90
30037;DHT22;36325;51.512;-0.382;2024-02-23T12:49:41;15.10;99.90
30037;DHT22;36325;51.512;-0.382;2024-02-23T12:52:11;14.50;99.90
30037;DHT22;36325;51.512;-0.382;2024-02-23T12:54:39;14.20;99.90
30037;DHT22;36325;51.512;-0.382;2024-02-23T12:57:06;15.00;99.90
30037;DHT22;36325;51.512;-0.382;2024-02-23T12:59:34;15.00;99.90
30037;DHT22;36325;51.512;-0.382;2024-02-23T13:02:01;15.00;99.90
30037;DHT22;36325;51.512;-0.382;2024-02-23T13:04:28;15.20;99.90
30037;DHT22;36325;51.512;-0.382;2024-02-23T13:06:55;15.20;99.90
30037;DHT22;36325;51.512;-0.382;2024-02-23T13:09:25;15.20;99.90
30037;DHT22;36325;51.512;-0.382;2024-02-23T13:11:52;15.30;99.90
30037;DHT22;36325;51.512;-0.382;2024-02-23T13:14:20;15.50;99.90
30037;DHT22;36325;51.512;-0.382;2024-02-23T13:16:47;15.70;99.90
30037;DHT22;36325;51.512;-0.382;2024-02-23T13:19:14;15.50;99.90
30037;DHT22;36325;51.512;-0.382;2024-02-23T13:21:41;15.50;99.90
30037;DHT22;36325;51.512;-0.382;2024-02-23T13:24:08;15.80;99.90
30037;DHT22;36325;51.512;-0.382;2024-02-23T13:26:36;15.40;99.90
30037;DHT22;36325;51.512;-0.382;2024-02-23T13:29:04;16.30;99.90
30037;DHT22;36325;51.512;-0.382;2024-02-23T13:31:31;16.10;99.90
30037;DHT22;36325;51.512;-0.382;2024-02-23T13:33:58;15.20;99.90
30037;DHT22;36325;51.512;-0.382;2024-02-23T13:36:25;14.80;99.90
30037;DHT22;36325;51.512;-0.382;2024-02-23T13:38:52;14.20;99.90
30037;DHT22;36325;51.512;-0.382;2024-02-23T13:41:19;13.70;99.90
30037;DHT22;36325;51.512;-0.382;2024-02-23T13:43:47;13.40;99.90
30037;DHT22;36325;51.512;-0.382;2024-02-23T13:46:14;13.20;99.90
30037;DHT22;36325;51.512;-0.382;2024-02-23T13:48:41;13.10;99.90
30037;DHT22;36325;51.512;-0.382;2024-02-23T13:51:08;13.30;99.90
30037;DHT22;36325;51.512;-0.382;2024-02-23T13:53:35;13.50;99.90
30037;DHT22;36325;51.512;-0.382;2024-02-23T13:56:04;13.80;99.90
30037;DHT22;36325;51.512;-0.382;2024-02-23T13:58:31;14.40;99.90
30037;DHT22;36325;51.512;-0.382;2024-02-23T14:00:59;14.70;99.90
30037;DHT22;36325;51.512;-0.382;2024-02-23T14:03:26;14.50;99.90
30037;DHT22;36325;51.512;-0.382;2024-02-23T14:05:53;14.00;99.90
30037;DHT22;36325;51.512;-0.382;2024-02-23T14:08:21;14.20;99.90
30037;DHT22;36325;51.512;-0.382;2024-02-23T14:10:48;14.80;99.90
30037;DHT22;36325;51.512;-0.382;2024-02-23T14:13:15;15.10;99.90
30037;DHT22;36325;51.512;-0.382;2024-02-23T14:15:43;15.80;99.90
30037;DHT22;36325;51.512;-0.382;2024-02-23T14:18:10;16.80;99.90
30037;DHT22;36325;51.512;-0.382;2024-02-23T14:20:37;16.90;99.90
30037;DHT22;36325;51.512;-0.382;2024-02-23T14:23:04;16.60;99.90
30037;DHT22;36325;51.512;-0.382;2024-02-23T14:25:31;16.30;99.90
30037;DHT22;36325;51.512;-0.382;2024-02-23T14:27:58;16.40;99.90
30037;DHT22;36325;51.512;-0.382;2024-02-23T14:30:25;17.00;99.90
30037;DHT22;36325;51.512;-0.382;2024-02-23T14:32:52;17.90;99.90
30037;DHT22;36325;51.512;-0.382;2024-02-23T14:35:19;18.50;99.90
30037;DHT22;36325;51.512;-0.382;2024-02-23T14:37:47;18.20;99.90
30037;DHT22;36325;51.512;-0.382;2024-02-23T14:40:14;17.00;99.90
30037;DHT22;36325;51.512;-0.382;2024-02-23T14:42:42;15.90;99.90
30037;DHT22;36325;51.512;-0.382;2024-02-23T14:45:09;14.90;99.90
30037;DHT22;36325;51.512;-0.382;2024-02-23T14:47:39;13.40;99.90
30037;DHT22;36325;51.512;-0.382;2024-02-23T14:50:11;13.10;99.90
30037;DHT22;36325;51.512;-0.382;2024-02-23T14:52:38;12.60;99.90
30037;DHT22;36325;51.512;-0.382;2024-02-23T14:55:06;12.10;99.90
30037;DHT22;36325;51.512;-0.382;2024-02-23T14:57:33;12.10;99.90
30037;DHT22;36325;51.512;-0.382;2024-02-23T15:00:00;11.80;99.90
30037;DHT22;36325;51.512;-0.382;2024-02-23T15:02:28;11.60;99.90
30037;DHT22;36325;51.512;-0.382;2024-02-23T15:04:55;11.40;99.90
30037;DHT22;36325;51.512;-0.382;2024-02-23T15:07:23;11.20;99.90
30037;DHT22;36325;51.512;-0.382;2024-02-23T15:09:50;11.00;99.90
30037;DHT22;36325;51.512;-0.382;2024-02-23T15:12:17;10.90;99.90
30037;DHT22;36325;51.512;-0.382;2024-02-23T15:14:45;10.70;99.90
30037;DHT22;36325;51.512;-0.382;2024-02-23T15:17:12;10.60;99.90
30037;DHT22;36325;51.512;-0.382;2024-02-23T15:19:39;10.40;99.90
30037;DHT22;36325;51.512;-0.382;2024-02-23T15:22:06;10.10;99.90
30037;DHT22;36325;51.512;-0.382;2024-02-23T15:24:35;9.60;99.90
30037;DHT22;36325;51.512;-0.382;2024-02-23T15:27:02;9.60;99.90
30037;DHT22;36325;51.512;-0.382;2024-02-23T15:29:30;9.30;99.90
30037;DHT22;36325;51.512;-0.382;2024-02-23T15:31:57;9.00;99.90